Slaughter Beach, Delaware
Current Conditions -  °F | °C
As of 9:18 PM on Wednesday 26 Nov 2014 (Local Time) from KDOV Reporting Station
Broken Clouds Broken Clouds  
Wind Chill: 26°   Ceiling: 7000
Heat Index: 36°   Visibility: 10mi
Dew Point: 36°   Wind: 15mph
Humidity: 100%   Direction: 310°NW
Pressure: 29.85"   Gusts: NA
Location:  38.9593°N, 75.405°W
Report Text: KDOV 270218Z AUTO 31013KT 10SM SCT011 BKN070 02/02 A2985 RMK AO2 CIG 012 RWY19
Loading
Personal Weather Stations






























Interactive Weather Map New forecast layout! Learn more

10-Day Weather Forecast

Advertisements
Track Severe Weather on mobile